createdAt,value
2018-08-31T00:01:04.017Z,101191.42
2018-08-31T00:03:43.560Z,101193.02
2018-08-31T00:06:22.968Z,101195.33
2018-08-31T00:09:01.921Z,101193.52
2018-08-31T00:11:37.633Z,101203.73
2018-08-31T00:14:05.614Z,101199.61
2018-08-31T00:16:33.715Z,101202.19
2018-08-31T00:19:01.703Z,101206.23
2018-08-31T00:21:29.692Z,101200.38
2018-08-31T00:24:09.037Z,101197.92
2018-08-31T00:26:48.627Z,101201.70
2018-08-31T00:29:37.069Z,101203.22
2018-08-31T00:35:22.189Z,101196.89
2018-08-31T00:38:01.524Z,101197.95
2018-08-31T00:42:44.220Z,101193.97
2018-08-31T00:45:25.908Z,101193.13
2018-08-31T00:47:53.989Z,101189.42
2018-08-31T00:50:21.988Z,101191.23
2018-08-31T00:52:49.976Z,101198.72
2018-08-31T00:55:17.988Z,101191.70
2018-08-31T00:57:46.000Z,101193.52
2018-08-31T01:00:14.021Z,101194.91
2018-08-31T01:02:42.014Z,101195.28
2018-08-31T01:05:10.010Z,101193.59
2018-08-31T01:07:38.072Z,101202.67
2018-08-31T01:10:06.044Z,101197.56
2018-08-31T01:12:34.051Z,101199.25
2018-08-31T01:15:02.096Z,101200.66
2018-08-31T01:17:30.088Z,101202.73
2018-08-31T01:19:58.113Z,101204.61
2018-08-31T01:22:26.141Z,101204.34
2018-08-31T01:24:54.135Z,101209.81
2018-08-31T01:27:22.146Z,101204.06
2018-08-31T01:29:50.312Z,101206.37
2018-08-31T01:32:18.304Z,101206.00
2018-08-31T01:34:46.305Z,101198.81
2018-08-31T01:37:14.308Z,101200.63
2018-08-31T01:39:42.309Z,101201.27
2018-08-31T01:42:10.477Z,101197.86
2018-08-31T01:44:38.533Z,101189.63
2018-08-31T01:47:06.951Z,101189.91
2018-08-31T01:49:34.973Z,101193.98
2018-08-31T01:52:02.976Z,101193.78
2018-08-31T01:54:30.975Z,101194.28
2018-08-31T01:56:59.013Z,101193.71
2018-08-31T01:59:27.000Z,101198.47
2018-08-31T02:01:55.008Z,101196.39
2018-08-31T02:04:23.000Z,101193.95
2018-08-31T02:06:51.038Z,101203.03
2018-08-31T02:09:20.053Z,101204.06
2018-08-31T02:11:49.025Z,101210.95
2018-08-31T02:14:17.017Z,101213.41
2018-08-31T02:16:45.045Z,101198.63
2018-08-31T02:19:13.042Z,101202.81
2018-08-31T02:21:41.250Z,101207.52
2018-08-31T02:24:09.228Z,101207.72
2018-08-31T02:26:37.242Z,101209.87
2018-08-31T02:29:05.284Z,101207.14
2018-08-31T02:31:33.269Z,101215.58
2018-08-31T02:34:01.508Z,101215.46
2018-08-31T02:36:29.513Z,101210.64
2018-08-31T02:38:57.509Z,101208.83
2018-08-31T02:41:25.564Z,101217.08
2018-08-31T02:43:53.591Z,101217.20
2018-08-31T02:46:22.628Z,101220.79
2018-08-31T02:48:51.618Z,101221.27
2018-08-31T02:51:19.928Z,101216.91
2018-08-31T02:53:47.924Z,101217.75
2018-08-31T02:56:15.914Z,101213.56
2018-08-31T02:58:44.000Z,101215.09
2018-08-31T03:01:12.205Z,101215.30
2018-08-31T03:03:40.318Z,101210.56
2018-08-31T03:06:08.363Z,101211.45
2018-08-31T03:08:36.361Z,101211.55
2018-08-31T03:11:04.389Z,101210.98
2018-08-31T03:13:32.402Z,101203.59
2018-08-31T03:16:00.404Z,101215.16
2018-08-31T03:18:28.440Z,101208.06
2018-08-31T03:20:56.450Z,101211.95
2018-08-31T03:23:24.558Z,101213.28
2018-08-31T03:25:52.632Z,101204.84
2018-08-31T03:28:20.655Z,101202.11
2018-08-31T03:30:48.665Z,101198.89
2018-08-31T03:33:16.717Z,101200.78
2018-08-31T03:35:44.747Z,101204.20
2018-08-31T03:38:12.744Z,101202.22
2018-08-31T03:40:40.784Z,101204.76
2018-08-31T03:43:08.792Z,101207.24
2018-08-31T03:45:36.808Z,101199.45
2018-08-31T03:48:04.968Z,101201.09
2018-08-31T03:50:32.988Z,101202.86
2018-08-31T03:53:01.007Z,101201.09
2018-08-31T03:55:29.017Z,101205.06
2018-08-31T03:57:57.069Z,101206.47
2018-08-31T04:00:25.078Z,101204.02
2018-08-31T04:02:53.056Z,101210.08
2018-08-31T04:05:21.109Z,101208.36
2018-08-31T04:07:49.125Z,101208.34
2018-08-31T04:10:17.326Z,101213.36
2018-08-31T04:12:45.351Z,101209.67
2018-08-31T04:15:13.398Z,101214.88
2018-08-31T04:17:41.397Z,101214.31
2018-08-31T04:20:09.848Z,101219.53
2018-08-31T04:22:37.929Z,101215.14
2018-08-31T04:25:05.920Z,101216.09
2018-08-31T04:27:33.964Z,101214.48
2018-08-31T04:30:01.981Z,101211.31
2018-08-31T04:32:29.974Z,101223.22
2018-08-31T04:34:57.980Z,101218.84
2018-08-31T04:37:25.998Z,101209.52
2018-08-31T04:39:54.013Z,101211.14
2018-08-31T04:42:22.036Z,101206.02
2018-08-31T04:44:50.053Z,101205.73
2018-08-31T04:47:18.066Z,101205.44
2018-08-31T04:49:46.099Z,101209.26
2018-08-31T04:52:14.126Z,101213.52
2018-08-31T04:54:42.120Z,101214.84
2018-08-31T04:57:10.172Z,101215.31
2018-08-31T04:59:38.186Z,101215.44
2018-08-31T05:02:06.352Z,101224.43
2018-08-31T05:04:34.358Z,101220.73
2018-08-31T05:07:02.360Z,101227.11
2018-08-31T05:09:30.370Z,101225.41
2018-08-31T05:11:58.432Z,101222.44
2018-08-31T05:14:26.499Z,101227.88
2018-08-31T05:16:54.563Z,101226.42
2018-08-31T05:19:22.593Z,101227.75
2018-08-31T05:21:50.664Z,101227.84
2018-08-31T05:24:18.665Z,101237.70
2018-08-31T05:26:46.706Z,101233.60
2018-08-31T05:29:14.729Z,101238.06
2018-08-31T05:31:42.785Z,101235.41
2018-08-31T05:34:10.777Z,101236.41
2018-08-31T05:36:38.855Z,101239.26
2018-08-31T05:39:09.228Z,101232.84
2018-08-31T05:41:37.244Z,101240.24
2018-08-31T05:44:05.296Z,101239.83
2018-08-31T05:46:33.324Z,101242.80
2018-08-31T05:49:01.329Z,101240.32
2018-08-31T05:51:29.366Z,101239.55
2018-08-31T05:53:57.369Z,101251.17
2018-08-31T05:56:25.400Z,101252.34
2018-08-31T05:58:53.400Z,101251.81
2018-08-31T06:01:21.408Z,101266.85
2018-08-31T06:03:49.402Z,101266.14
2018-08-31T06:06:17.429Z,101264.25
2018-08-31T06:08:45.442Z,101264.67
2018-08-31T06:11:13.464Z,101263.70
2018-08-31T06:13:41.564Z,101264.48
2018-08-31T06:16:09.701Z,101268.69
2018-08-31T06:18:37.718Z,101266.52
2018-08-31T06:21:05.960Z,101265.23
2018-08-31T06:23:34.154Z,101266.34
2018-08-31T06:26:02.797Z,101274.33
2018-08-31T06:28:31.009Z,101278.78
2018-08-31T06:30:59.049Z,101278.43
2018-08-31T06:33:27.134Z,101284.63
2018-08-31T06:35:55.781Z,101283.19
2018-08-31T06:38:23.821Z,101289.14
2018-08-31T06:40:51.867Z,101286.23
2018-08-31T06:43:19.872Z,101293.67
2018-08-31T06:45:47.918Z,101298.73
2018-08-31T06:48:15.933Z,101290.82
2018-08-31T06:50:44.162Z,101294.53
2018-08-31T06:53:12.189Z,101290.09
2018-08-31T06:55:40.225Z,101293.14
2018-08-31T06:58:08.256Z,101294.91
2018-08-31T07:00:36.253Z,101299.11
2018-08-31T07:03:04.300Z,101302.31
2018-08-31T07:05:32.543Z,101300.95
2018-08-31T07:08:00.588Z,101308.22
2018-08-31T07:10:28.630Z,101300.64
2018-08-31T07:12:56.664Z,101301.37
2018-08-31T07:15:24.689Z,101300.30
2018-08-31T07:17:52.704Z,101302.69
2018-08-31T07:20:20.744Z,101307.05
2018-08-31T07:22:48.741Z,101298.73
2018-08-31T07:25:16.779Z,101296.92
2018-08-31T07:27:44.797Z,101294.45
2018-08-31T07:30:12.829Z,101299.05
2018-08-31T07:32:40.840Z,101303.11
2018-08-31T07:35:08.881Z,101310.73
2018-08-31T07:37:36.938Z,101305.97
2018-08-31T07:40:05.564Z,101308.66
2018-08-31T07:42:33.657Z,101308.66
2018-08-31T07:45:01.757Z,101300.31
2018-08-31T07:47:29.816Z,101301.27
2018-08-31T07:49:57.876Z,101309.50
2018-08-31T07:52:25.935Z,101316.00
2018-08-31T07:54:53.961Z,101312.84
2018-08-31T07:57:22.019Z,101317.75
2018-08-31T07:59:50.035Z,101325.97
2018-08-31T08:02:18.037Z,101318.89
2018-08-31T08:04:46.196Z,101320.46
2018-08-31T08:07:14.258Z,101326.13
2018-08-31T08:09:42.265Z,101328.98
2018-08-31T08:12:10.309Z,101329.24
2018-08-31T08:14:38.422Z,101322.76
2018-08-31T08:17:06.429Z,101325.50
2018-08-31T08:19:34.466Z,101328.77
2018-08-31T08:22:02.469Z,101320.91
2018-08-31T08:24:30.488Z,101329.38
2018-08-31T08:26:58.638Z,101323.30
2018-08-31T08:29:27.483Z,101330.15
2018-08-31T08:31:55.544Z,101325.53
2018-08-31T08:34:23.641Z,101331.52
2018-08-31T08:36:51.644Z,101332.74
2018-08-31T08:39:19.692Z,101337.72
2018-08-31T08:41:47.718Z,101338.51
2018-08-31T08:44:15.766Z,101344.49
2018-08-31T08:46:43.770Z,101341.36
2018-08-31T08:49:11.820Z,101347.91
2018-08-31T08:51:39.851Z,101343.34
2018-08-31T08:54:08.022Z,101343.69
2018-08-31T08:56:36.056Z,101338.89
2018-08-31T08:59:04.148Z,101340.63
2018-08-31T09:01:32.165Z,101339.72
2018-08-31T09:04:00.357Z,101341.09
2018-08-31T09:06:28.358Z,101345.61
2018-08-31T09:08:56.441Z,101338.61
2018-08-31T09:11:24.444Z,101348.38
2018-08-31T09:13:52.488Z,101346.30
2018-08-31T09:16:20.506Z,101349.41
2018-08-31T09:18:48.662Z,101346.47
2018-08-31T09:21:16.677Z,101345.66
2018-08-31T09:23:44.701Z,101346.17
2018-08-31T09:26:14.073Z,101346.92
2018-08-31T09:28:42.288Z,101348.67
2018-08-31T09:31:13.087Z,101343.95
2018-08-31T09:33:41.136Z,101348.61
2018-08-31T09:36:09.417Z,101341.36
2018-08-31T09:38:37.456Z,101339.30
2018-08-31T09:41:05.956Z,101341.50
2018-08-31T09:43:34.096Z,101341.97
2018-08-31T09:46:02.240Z,101343.61
2018-08-31T09:48:30.581Z,101341.52
2018-08-31T09:50:58.844Z,101345.29
2018-08-31T09:53:27.387Z,101339.31
2018-08-31T09:55:55.636Z,101339.91
2018-08-31T09:58:23.741Z,101341.81
2018-08-31T10:00:57.061Z,101343.89
2018-08-31T10:03:25.950Z,101339.30
2018-08-31T10:05:55.016Z,101335.73
2018-08-31T10:08:24.893Z,101339.03
2018-08-31T10:10:53.090Z,101338.36
2018-08-31T10:13:21.181Z,101332.02
2018-08-31T10:15:49.205Z,101331.55
2018-08-31T10:18:17.252Z,101326.56
2018-08-31T10:20:45.300Z,101323.42
2018-08-31T10:23:13.327Z,101327.90
2018-08-31T10:25:41.361Z,101331.25
2018-08-31T10:28:09.529Z,101325.16
2018-08-31T10:30:37.561Z,101326.94
2018-08-31T10:33:05.664Z,101326.66
2018-08-31T10:35:34.140Z,101327.72
2018-08-31T10:38:02.328Z,101326.59
2018-08-31T10:40:30.362Z,101319.84
2018-08-31T10:42:58.412Z,101315.97
2018-08-31T10:45:27.620Z,101316.45
2018-08-31T10:47:55.720Z,101314.64
2018-08-31T10:50:23.746Z,101314.97
2018-08-31T10:52:51.916Z,101310.12
2018-08-31T10:55:19.980Z,101318.83
2018-08-31T10:57:47.976Z,101310.89
2018-08-31T11:00:15.993Z,101305.66
2018-08-31T11:02:44.056Z,101306.84
2018-08-31T11:05:12.122Z,101303.95
2018-08-31T11:07:40.152Z,101306.67
2018-08-31T11:10:08.176Z,101303.30
2018-08-31T11:12:36.346Z,101299.25
2018-08-31T11:15:05.508Z,101299.23
2018-08-31T11:17:33.648Z,101297.90
2018-08-31T11:20:01.782Z,101294.53
2018-08-31T11:22:29.828Z,101291.02
2018-08-31T11:24:57.976Z,101297.63
2018-08-31T11:27:26.021Z,101302.97
2018-08-31T11:29:54.074Z,101289.88
2018-08-31T11:32:22.316Z,101295.37
2018-08-31T11:34:50.401Z,101293.16
2018-08-31T11:39:50.988Z,101299.22
2018-08-31T11:42:19.020Z,101293.20
2018-08-31T11:44:47.060Z,101293.88
2018-08-31T11:47:15.092Z,101298.39
2018-08-31T11:49:43.127Z,101295.84
2018-08-31T11:52:11.129Z,101299.48
2018-08-31T11:54:39.141Z,101296.16
2018-08-31T11:57:07.230Z,101300.93
2018-08-31T11:59:35.289Z,101296.27
2018-08-31T12:02:03.531Z,101299.76
2018-08-31T12:04:31.592Z,101306.16
2018-08-31T12:06:59.629Z,101302.09
2018-08-31T12:09:27.649Z,101302.63
2018-08-31T12:11:55.697Z,101305.63
2018-08-31T12:14:23.789Z,101298.89
2018-08-31T12:16:51.837Z,101297.39
2018-08-31T12:19:19.865Z,101297.86
2018-08-31T12:21:47.892Z,101300.73
2018-08-31T12:24:15.901Z,101298.84
2018-08-31T12:26:43.932Z,101300.56
2018-08-31T12:29:11.995Z,101290.90
2018-08-31T12:31:40.037Z,101294.37
2018-08-31T12:34:08.097Z,101299.59
2018-08-31T12:36:36.110Z,101300.25
2018-08-31T12:39:05.878Z,101304.45
2018-08-31T12:41:33.953Z,101300.25
2018-08-31T12:44:02.157Z,101299.59
2018-08-31T12:46:30.161Z,101297.00
2018-08-31T12:48:58.181Z,101298.06
2018-08-31T12:51:26.309Z,101293.27
2018-08-31T12:53:54.338Z,101295.55
2018-08-31T12:56:22.525Z,101298.22
2018-08-31T12:58:50.546Z,101295.55
2018-08-31T13:01:18.593Z,101283.03
2018-08-31T13:03:46.709Z,101285.92
2018-08-31T13:06:14.741Z,101290.44
2018-08-31T13:08:42.805Z,101294.59
2018-08-31T13:11:10.919Z,101295.74
2018-08-31T13:13:39.016Z,101292.62
2018-08-31T13:16:07.056Z,101297.06
2018-08-31T13:18:35.118Z,101297.87
2018-08-31T13:21:03.281Z,101300.06
2018-08-31T13:23:31.315Z,101295.84
2018-08-31T13:25:59.445Z,101296.11
2018-08-31T13:28:27.446Z,101297.87
2018-08-31T13:30:55.662Z,101297.69
2018-08-31T13:33:23.873Z,101289.44
2018-08-31T13:35:51.921Z,101291.41
2018-08-31T13:38:20.094Z,101289.80
2018-08-31T13:40:48.249Z,101297.89
2018-08-31T13:43:16.551Z,101297.94
2018-08-31T13:45:44.857Z,101292.50
2018-08-31T13:48:12.881Z,101291.56
2018-08-31T13:50:40.901Z,101286.45
2018-08-31T13:53:08.932Z,101283.30
2018-08-31T13:55:36.924Z,101282.16
2018-08-31T13:58:04.969Z,101291.51
2018-08-31T14:00:33.373Z,101286.20
2018-08-31T14:03:01.449Z,101285.81
2018-08-31T14:05:29.471Z,101292.32
2018-08-31T14:07:57.476Z,101289.84
2018-08-31T14:10:25.516Z,101287.74
2018-08-31T14:12:53.683Z,101281.49
2018-08-31T14:15:21.713Z,101283.83
2018-08-31T14:17:49.748Z,101283.32
2018-08-31T14:20:17.814Z,101281.69
2018-08-31T14:22:45.886Z,101278.20
2018-08-31T14:25:13.875Z,101282.23
2018-08-31T14:27:42.005Z,101280.59
2018-08-31T14:30:10.018Z,101284.94
2018-08-31T14:32:38.055Z,101284.03
2018-08-31T14:35:06.081Z,101287.04
2018-08-31T14:37:34.379Z,101281.13
2018-08-31T14:40:02.458Z,101289.12
2018-08-31T14:42:30.521Z,101279.61
2018-08-31T14:44:58.541Z,101279.67
2018-08-31T14:47:26.556Z,101275.89
2018-08-31T14:49:54.606Z,101272.39
2018-08-31T14:52:22.607Z,101284.14
2018-08-31T14:54:50.598Z,101287.20
2018-08-31T14:57:18.616Z,101285.63
2018-08-31T14:59:46.671Z,101294.87
2018-08-31T15:02:14.732Z,101287.77
2018-08-31T15:04:42.774Z,101290.03
2018-08-31T15:07:10.783Z,101292.40
2018-08-31T15:09:38.780Z,101283.58
2018-08-31T15:12:06.816Z,101289.38
2018-08-31T15:14:34.882Z,101293.88
2018-08-31T15:17:03.024Z,101292.70
2018-08-31T15:19:31.031Z,101298.11
2018-08-31T15:21:59.037Z,101296.58
2018-08-31T15:24:27.043Z,101292.72
2018-08-31T15:26:55.208Z,101297.91
2018-08-31T15:29:23.200Z,101288.48
2018-08-31T15:31:51.182Z,101287.61
2018-08-31T15:34:19.184Z,101286.64
2018-08-31T15:36:47.207Z,101292.62
2018-08-31T15:39:15.222Z,101283.44
2018-08-31T15:41:43.266Z,101282.62
2018-08-31T15:44:11.497Z,101281.02
2018-08-31T15:46:39.480Z,101276.72
2018-08-31T15:49:07.538Z,101273.52
2018-08-31T15:51:35.526Z,101269.41
2018-08-31T15:54:03.599Z,101268.92
2018-08-31T15:56:31.581Z,101272.42
2018-08-31T15:58:59.650Z,101276.52
2018-08-31T16:01:27.656Z,101274.69
2018-08-31T16:03:56.145Z,101273.91
2018-08-31T16:06:24.169Z,101282.17
2018-08-31T16:08:52.193Z,101282.81
2018-08-31T16:11:20.228Z,101281.64
2018-08-31T16:13:48.255Z,101281.64
2018-08-31T16:16:16.256Z,101281.64
2018-08-31T16:18:44.410Z,101281.47
2018-08-31T16:21:12.379Z,101285.67
2018-08-31T16:23:40.410Z,101284.84
2018-08-31T16:26:08.452Z,101288.70
2018-08-31T16:28:36.496Z,101288.23
2018-08-31T16:31:04.505Z,101289.96
2018-08-31T16:33:32.585Z,101291.50
2018-08-31T16:36:00.901Z,101294.78
2018-08-31T16:38:28.908Z,101287.86
2018-08-31T16:40:56.914Z,101298.30
2018-08-31T16:43:24.932Z,101296.56
2018-08-31T16:45:52.949Z,101296.30
2018-08-31T16:48:20.965Z,101298.42
2018-08-31T16:50:48.970Z,101293.35
2018-08-31T16:53:16.994Z,101297.64
2018-08-31T16:55:45.030Z,101298.61
2018-08-31T16:58:13.095Z,101301.19
2018-08-31T17:00:41.162Z,101303.46
2018-08-31T17:03:09.204Z,101299.52
2018-08-31T17:05:37.222Z,101307.45
2018-08-31T17:08:05.232Z,101307.91
2018-08-31T17:10:33.282Z,101302.28
2018-08-31T17:13:01.289Z,101303.20
2018-08-31T17:15:29.293Z,101302.36
2018-08-31T17:17:57.474Z,101310.35
2018-08-31T17:20:25.506Z,101304.74
2018-08-31T17:22:53.512Z,101316.66
2018-08-31T17:25:21.564Z,101312.73
2018-08-31T17:27:54.923Z,101311.52
2018-08-31T17:30:23.686Z,101309.69
2018-08-31T17:32:57.180Z,101312.13
2018-08-31T17:35:30.790Z,101312.67
2018-08-31T17:38:00.172Z,101317.20
2018-08-31T17:40:28.287Z,101317.51
2018-08-31T17:42:56.458Z,101317.38
2018-08-31T17:45:24.482Z,101321.70
2018-08-31T17:47:52.888Z,101322.24
2018-08-31T17:50:20.904Z,101330.36
2018-08-31T17:52:48.966Z,101331.70
2018-08-31T17:55:17.005Z,101336.87
2018-08-31T17:57:45.035Z,101336.81
2018-08-31T18:00:13.299Z,101338.52
2018-08-31T18:02:41.421Z,101344.73
2018-08-31T18:05:09.489Z,101342.46
2018-08-31T18:07:37.549Z,101342.91
2018-08-31T18:10:06.184Z,101357.63
2018-08-31T18:12:34.200Z,101344.84
2018-08-31T18:15:02.204Z,101356.66
2018-08-31T18:17:30.217Z,101348.30
2018-08-31T18:19:58.345Z,101353.31
2018-08-31T18:22:26.304Z,101353.55
2018-08-31T18:24:54.343Z,101357.90
2018-08-31T18:27:22.348Z,101362.42
2018-08-31T18:29:50.462Z,101365.50
2018-08-31T18:32:18.476Z,101370.13
2018-08-31T18:34:46.553Z,101373.52
2018-08-31T18:37:14.576Z,101374.48
2018-08-31T18:39:42.606Z,101386.40
2018-08-31T18:42:10.608Z,101382.23
2018-08-31T18:44:38.608Z,101387.33
2018-08-31T18:47:06.645Z,101386.65
2018-08-31T18:49:34.799Z,101390.17
2018-08-31T18:52:02.865Z,101388.34
2018-08-31T18:54:30.853Z,101386.50
2018-08-31T18:56:58.897Z,101385.42
2018-08-31T18:59:26.905Z,101389.06
2018-08-31T19:01:54.964Z,101394.06
2018-08-31T19:04:23.035Z,101403.42
2018-08-31T19:06:51.057Z,101403.55
2018-08-31T19:09:19.084Z,101399.66
2018-08-31T19:11:47.097Z,101406.81
2018-08-31T19:14:15.113Z,101405.74
2018-08-31T19:16:43.152Z,101404.89
2018-08-31T19:19:11.159Z,101401.74
2018-08-31T19:21:39.180Z,101405.49
2018-08-31T19:24:07.209Z,101406.73
2018-08-31T19:26:35.268Z,101410.22
2018-08-31T19:29:03.329Z,101412.66
2018-08-31T19:31:31.460Z,101418.00
2018-08-31T19:33:59.411Z,101415.92
2018-08-31T19:36:27.413Z,101416.28
2018-08-31T19:38:55.489Z,101416.77
2018-08-31T19:41:23.522Z,101417.37
2018-08-31T19:43:51.505Z,101421.38
2018-08-31T19:46:19.577Z,101425.98
2018-08-31T19:48:47.750Z,101426.36
2018-08-31T19:51:15.788Z,101429.23
2018-08-31T19:53:44.115Z,101429.58
2018-08-31T19:56:12.092Z,101431.27
2018-08-31T19:58:40.161Z,101429.48
2018-08-31T20:01:08.189Z,101436.00
2018-08-31T20:03:36.193Z,101436.66
2018-08-31T20:06:04.218Z,101437.22
2018-08-31T20:08:32.237Z,101440.63
2018-08-31T20:11:00.315Z,101443.54
2018-08-31T20:13:28.484Z,101441.05
2018-08-31T20:15:56.536Z,101441.88
2018-08-31T20:18:24.564Z,101442.93
2018-08-31T20:20:52.676Z,101450.52
2018-08-31T20:23:20.753Z,101448.36
2018-08-31T20:25:48.764Z,101450.54
2018-08-31T20:28:16.840Z,101448.11
2018-08-31T20:30:44.893Z,101446.62
2018-08-31T20:33:12.884Z,101447.95
2018-08-31T20:35:40.908Z,101451.34
2018-08-31T20:38:08.913Z,101455.08
2018-08-31T20:40:36.918Z,101456.91
2018-08-31T20:43:05.044Z,101453.47
2018-08-31T20:45:33.016Z,101461.95
2018-08-31T20:48:01.042Z,101461.30
2018-08-31T20:50:29.188Z,101463.61
2018-08-31T20:52:57.254Z,101464.03
2018-08-31T20:55:32.002Z,101469.02
2018-08-31T20:58:01.241Z,101469.43
2018-08-31T21:00:29.293Z,101476.81
2018-08-31T21:02:57.365Z,101463.73
2018-08-31T21:05:25.373Z,101462.43
2018-08-31T21:07:53.456Z,101472.69
2018-08-31T21:10:21.505Z,101476.78
2018-08-31T21:12:49.561Z,101478.38
2018-08-31T21:15:17.624Z,101474.52
2018-08-31T21:17:45.760Z,101473.58
2018-08-31T21:20:13.776Z,101478.73
2018-08-31T21:22:41.833Z,101476.30
2018-08-31T21:25:09.905Z,101474.27
2018-08-31T21:27:37.890Z,101475.77
2018-08-31T21:30:05.972Z,101478.16
2018-08-31T21:32:34.053Z,101476.83
2018-08-31T21:35:02.716Z,101479.22
2018-08-31T21:37:30.736Z,101473.99
2018-08-31T21:39:58.712Z,101469.46
2018-08-31T21:42:26.794Z,101475.36
2018-08-31T21:44:56.430Z,101477.66
2018-08-31T21:47:24.500Z,101480.11
2018-08-31T21:49:52.488Z,101485.87
2018-08-31T21:52:20.520Z,101485.51
2018-08-31T21:54:48.544Z,101486.94
2018-08-31T21:57:16.646Z,101487.87
2018-08-31T21:59:44.803Z,101482.43
2018-08-31T22:02:12.876Z,101483.28
2018-08-31T22:04:40.918Z,101480.55
2018-08-31T22:07:09.016Z,101480.34
2018-08-31T22:09:37.025Z,101482.34
2018-08-31T22:12:05.086Z,101482.57
2018-08-31T22:14:33.340Z,101483.03
2018-08-31T22:17:01.366Z,101486.47
2018-08-31T22:19:29.381Z,101485.61
2018-08-31T22:21:57.415Z,101488.22
2018-08-31T22:24:25.405Z,101482.59
2018-08-31T22:26:53.527Z,101488.29
2018-08-31T22:29:21.529Z,101479.97
2018-08-31T22:31:49.565Z,101483.39
2018-08-31T22:34:17.642Z,101481.68
2018-08-31T22:36:45.629Z,101478.36
2018-08-31T22:39:13.625Z,101480.63
2018-08-31T22:41:41.620Z,101483.91
2018-08-31T22:44:09.621Z,101483.34
2018-08-31T22:46:37.660Z,101480.13
2018-08-31T22:49:05.802Z,101479.58
2018-08-31T22:51:33.809Z,101475.03
2018-08-31T22:54:01.833Z,101474.46
2018-08-31T22:56:29.832Z,101467.06
2018-08-31T22:58:57.839Z,101473.70
2018-08-31T23:01:26.036Z,101473.79
2018-08-31T23:03:54.056Z,101472.02
2018-08-31T23:06:22.061Z,101473.23
2018-08-31T23:08:50.072Z,101471.53
2018-08-31T23:11:18.078Z,101471.17
2018-08-31T23:13:46.133Z,101466.90
2018-08-31T23:16:14.100Z,101465.94
2018-08-31T23:18:42.148Z,101468.23
2018-08-31T23:21:10.444Z,101467.06
2018-08-31T23:23:43.885Z,101470.88
2018-08-31T23:26:11.923Z,101478.66
2018-08-31T23:28:39.912Z,101474.58
2018-08-31T23:31:07.973Z,101472.86
2018-08-31T23:33:35.986Z,101478.00
2018-08-31T23:36:04.020Z,101472.01
2018-08-31T23:38:32.025Z,101482.62
2018-08-31T23:41:00.268Z,101471.44
2018-08-31T23:43:28.283Z,101482.06
2018-08-31T23:45:56.389Z,101482.17
2018-08-31T23:48:24.386Z,101469.46
2018-08-31T23:50:52.372Z,101479.03
2018-08-31T23:53:20.369Z,101481.69
2018-08-31T23:55:48.397Z,101485.37
2018-08-31T23:58:16.396Z,101477.12
